Latest Coastal Weather Observations for Karratha

IDW60701

Issued at 5:15 am WST Tuesday 21 October 2014 (issued every 10 minutes, with the page automatically refreshed every 10 minutes)

About coastal observations | Map of coastal stations | Coastal observations for WA | Marine services | Other Formats
Station Details ID: 004083 Name: KARRATHA AERO Lat: -20.71 Lon: 116.77 Height: 5.3 m
Data from the previous 72 hours. | See also: Recent months at Karratha
Date/Time
WST
Temp

°C
Wind Pressure Rain
since 9am
mm
Weather Cloud Vis
km
Sea
Height
m
Swell
Dir
 
Speed
knots
Gust
knots
hPa Trend Height
m
Period
s
Dir
21/05:00am 20.3 WSW 9 11 1015.2 - 0.0 - - 10 - - - -
21/04:30am 20.4 WSW 8 10 1015.0 - 0.0 - - 10 - - - -
21/04:00am 20.9 WSW 10 12 1014.8 - 0.0 - - 10 - - - -
21/03:30am 21.2 WSW 9 11 1014.6 - 0.0 - - 10 - - - -
21/03:00am 21.3 WSW 9 12 1014.7 - 0.0 - - 10 - - - -
21/02:30am 21.3 SW 9 11 1014.7 - 0.0 - - 10 - - - -
21/02:00am 20.9 SW 8 10 1014.9 - 0.0 - - 10 - - - -
21/01:30am 21.2 SW 9 12 1015.0 - 0.0 - - 10 - - - -
21/01:00am 21.9 SW 13 16 1015.2 - 0.0 - - 10 - - - -
21/12:30am 22.1 WSW 11 14 1015.5 - 0.0 - - 10 - - - -
21/12:00am 22.3 W 12 15 1015.4 - 0.0 - - 10 - - - -
 
Date/Time
WST
Temp

°C
Wind Pressure Rain
since 9am
mm
Weather Cloud Vis
km
Sea
Height
m
Swell
Dir
 
Speed
knots
Gust
knots
hPa Trend Height
m
Period
s
Dir
20/11:30pm 22.6 WSW 13 17 1015.6 - 0.0 - - 10 - - - -
20/11:00pm 22.8 WSW 14 19 1016.0 - 0.0 - - 10 - - - -
20/10:30pm 23.0 WSW 15 19 1016.0 - 0.0 - - 10 - - - -
20/10:00pm 23.3 WSW 13 15 1015.9 - 0.0 - - 10 - - - -
20/09:30pm 23.9 W 15 17 1015.9 - 0.0 - - 10 - - - -
20/09:00pm 24.1 W 14 17 1015.7 - 0.0 - - 10 - - - -
20/08:30pm 24.7 W 15 19 1015.3 - 0.0 - - 10 - - - -
20/08:00pm 24.9 W 15 17 1015.1 - 0.0 - - 10 - - - -
20/07:30pm 25.0 W 14 18 1015.0 - 0.0 - - 10 - - - -
20/07:00pm 25.2 W 15 17 1014.6 - 0.0 - - 10 - - - -
20/06:30pm 25.6 W 15 18 1014.1 - 0.0 - - 10 - - - -
20/06:00pm 26.4 W 16 18 1013.8 - 0.0 - - 10 - - - -
20/05:30pm 26.9 WNW 14 18 1013.5 - 0.0 - - 10 - - - -
20/05:00pm 27.6 WNW 13 17 1013.4 - 0.0 - - 10 - - - -
20/04:30pm 28.4 WNW 14 18 1013.1 - 0.0 - - 10 - - - -
20/04:00pm 29.2 WNW 14 17 1013.1 - 0.0 - - 10 - - - -
20/03:30pm 29.9 WNW 13 16 1013.0 - 0.0 - - 10 - - - -
20/03:00pm 30.9 NW 13 16 1013.0 - 0.0 - - 10 - - - -
20/02:30pm 30.5 WNW 13 16 1013.1 - 0.0 - - 10 - - - -
20/02:00pm 30.4 WNW 13 16 1013.3 - 0.0 - - 10 - - - -
20/01:30pm 30.8 NW 12 16 1013.6 - 0.0 - - 10 - - - -
20/01:00pm 31.5 NW 11 15 1013.9 - 0.0 - - 10 - - - -
20/12:30pm 31.8 WNW 10 13 1014.2 - 0.0 - - 10 - - - -
20/12:00pm 31.5 WNW 9 12 1014.5 - 0.0 - - 10 - - - -
20/11:30am 31.1 NW 8 11 1014.8 - 0.0 - - 10 - - - -
20/11:00am 30.6 WNW 9 12 1015.2 - 0.0 - - 10 - - - -
20/10:30am 29.9 W 10 13 1015.5 - 0.0 - - 10 - - - -
20/10:00am 29.0 WNW 9 11 1015.8 - 0.0 - - 10 - - - -
20/09:30am 27.7 W 8 11 1016.1 - 0.0 - - 10 - - - -
20/09:00am 26.6 W 9 11 1016.1 - 0.0 - - 10 - - - -
20/08:30am 25.3 WSW 8 11 1016.2 - 0.0 - - 10 - - - -
20/08:00am 23.4 W 6 7 1016.1 - 0.0 - - 10 - - - -
20/07:30am 22.6 WSW 7 9 1016.0 - 0.0 - - 10 - - - -
20/07:00am 21.4 WSW 9 11 1015.6 - 0.0 - - 10 - - - -
20/06:30am 20.4 WSW 10 11 1015.4 - 0.0 - - 10 - - - -
20/06:00am 19.4 WSW 7 8 1015.1 - 0.0 - - 10 - - - -
20/05:30am 19.2 WSW 7 9 1014.9 - 0.0 - - 10 - - - -
20/05:00am 19.4 WSW 7 9 1014.6 - 0.0 - - 10 - - - -
20/04:30am 19.5 WSW 8 10 1014.3 - 0.0 - - 10 - - - -
20/04:00am 19.7 WSW 11 13 1014.1 - 0.0 - - 10 - - - -
20/03:30am 20.2 WSW 10 13 1013.9 - 0.0 - - 10 - - - -
20/03:00am 20.7 WSW 10 12 1013.8 - 0.0 - - 10 - - - -
20/02:30am 21.1 WSW 11 13 1013.7 - 0.0 - - 10 - - - -
20/02:00am 21.5 WSW 12 15 1013.8 - 0.0 - - 10 - - - -
20/01:30am 21.9 WSW 14 17 1013.8 - 0.0 - - 10 - - - -
20/01:00am 22.2 WSW 14 17 1014.0 - 0.0 - - 10 - - - -
20/12:30am 22.3 WSW 12 15 1014.3 - 0.0 - - 10 - - - -
20/12:00am 22.4 WSW 13 17 1014.5 - 0.0 - - 10 - - - -
 
Date/Time
WST
Temp

°C
Wind Pressure Rain
since 9am
mm
Weather Cloud Vis
km
Sea
Height
m
Swell
Dir
 
Speed
knots
Gust
knots
hPa Trend Height
m
Period
s
Dir
19/11:30pm 22.6 WSW 14 17 1014.7 - 0.0 - - 10 - - - -
19/11:00pm 22.7 WSW 11 14 1014.7 - 0.0 - - 10 - - - -
19/10:30pm 23.3 WSW 13 16 1014.8 - 0.0 - - 10 - - - -
19/10:00pm 23.3 WSW 11 14 1014.9 - 0.0 - - 10 - - - -
19/09:30pm 23.7 WSW 15 18 1014.6 - 0.0 - - 10 - - - -
19/09:00pm 24.0 WSW 14 17 1014.6 - 0.0 - - 10 - - - -
19/08:30pm 24.4 W 15 19 1014.4 - 0.0 - - 10 - - - -
19/08:00pm 24.7 W 17 21 1014.0 - 0.0 - - 10 - - - -
19/07:30pm 24.6 W 17 21 1013.7 - 0.0 - - 10 - - - -
19/07:00pm 24.6 W 17 21 1013.3 - 0.0 - - 10 - - - -
19/06:30pm 25.0 W 18 21 1012.9 - 0.0 - - 10 - - - -
19/06:00pm 25.9 W 18 22 1012.5 - 0.0 - - 10 - - - -
19/05:30pm 27.0 W 20 25 1012.2 - 0.0 - - 10 - - - -
19/05:00pm 27.3 W 20 25 1011.9 - 0.0 - - 10 - - - -
19/04:30pm 28.5 W 19 24 1011.7 - 0.0 - - 10 - - - -
19/04:00pm 28.5 W 20 24 1011.7 - 0.0 - - 10 - - - -
19/03:30pm 29.1 W 21 24 1011.9 - 0.0 - - 10 - - - -
19/03:00pm 28.8 W 21 25 1011.6 - 0.0 - - 10 - - - -
19/02:30pm 29.5 W 21 24 1011.8 - 0.0 - - 10 - - - -
19/02:00pm 29.2 W 19 22 1012.1 - 0.0 - - 10 - - - -
19/01:30pm 29.4 W 18 22 1012.4 - 0.0 - - 10 - - - -
19/01:00pm 29.0 W 17 21 1013.0 - 0.0 - - 10 - - - -
19/12:30pm 29.9 W 16 19 1013.4 - 0.0 - - 10 - - - -
19/12:00pm 29.2 W 15 19 1013.7 - 0.0 - - 10 - - - -
19/11:30am 29.4 W 13 19 1014.0 - 0.0 - - 10 - - - -
19/11:00am 29.7 W 14 17 1014.3 - 0.0 - - 10 - - - -
19/10:30am 29.0 W 14 19 1014.7 - 0.0 - - 10 - - - -
19/10:00am 28.8 WSW 14 19 1015.0 - 0.0 - - 10 - - - -
19/09:30am 27.5 WSW 13 19 1015.1 - 0.0 - - 10 - - - -
19/09:00am 26.9 SW 15 19 1015.3 - 0.0 - - 10 - - - -
19/08:30am 26.2 WSW 16 20 1015.3 - 0.0 - - 10 - - - -
19/08:00am 25.1 SW 15 19 1015.2 - 0.0 - - 10 - - - -
19/07:30am 24.2 SW 14 18 1015.2 - 0.0 - - 10 - - - -
19/07:00am 23.1 SW 11 14 1014.9 - 0.0 - - 10 - - - -
19/06:30am 21.9 SW 11 14 1014.5 - 0.0 - - 10 - - - -
19/06:00am 21.5 SW 11 14 1013.8 - 0.0 - - 10 - - - -
19/05:30am 21.5 WSW 10 13 1013.3 - 0.0 - - 10 - - - -
19/05:00am 21.7 SW 10 13 1013.2 - 0.0 - - 10 - - - -
19/04:30am 22.1 SW 11 14 1012.8 - 0.0 - - 10 - - - -
19/04:00am 22.2 SW 11 14 1012.6 - 0.0 - - 10 - - - -
19/03:30am 22.5 SW 13 17 1012.7 - 0.0 - - 10 - - - -
19/03:00am 22.7 WSW 14 16 1012.5 - 0.0 - - 10 - - - -
19/02:30am 22.9 WSW 14 17 1012.5 - 0.0 - - 10 - - - -
19/02:00am 23.0 WSW 14 19 1012.5 - 0.0 - - 10 - - - -
19/01:30am 23.1 WSW 15 20 1012.5 - 0.0 - - 10 - - - -
19/01:00am 23.2 WSW 15 19 1012.8 - 0.0 - - 10 - - - -
19/12:30am 23.3 WSW 13 16 1013.1 - 0.0 - - 10 - - - -
19/12:00am 23.5 WSW 13 16 1013.5 - 0.0 - - 10 - - - -
 
Date/Time
WST
Temp

°C
Wind Pressure Rain
since 9am
mm
Weather Cloud Vis
km
Sea
Height
m
Swell
Dir
 
Speed
knots
Gust
knots
hPa Trend Height
m
Period
s
Dir
18/11:30pm 23.9 WSW 13 16 1013.6 - 0.0 - - 10 - - - -
18/11:00pm 24.5 W 15 19 1013.6 - 0.0 - - 10 - - - -
18/10:30pm 24.8 W 15 19 1013.8 - 0.0 - - 10 - - - -
18/10:00pm 25.0 W 13 16 1013.8 - 0.0 - - 10 - - - -
18/09:30pm 25.0 W 13 16 1013.9 - 0.0 - - 10 - - - -
18/09:00pm 25.0 W 14 17 1013.7 - 0.0 - - 10 - - - -
18/08:30pm 25.1 W 14 17 1013.3 - 0.0 - - 10 - - - -
18/08:00pm 25.1 W 18 21 1013.0 - 0.0 - - 10 - - - -
18/07:30pm 25.4 W 16 20 1012.8 - 0.0 - - 10 - - - -
18/07:00pm 25.4 W 19 22 1012.4 - 0.0 - - 10 - - - -
18/06:30pm 25.7 W 17 21 1012.1 - 0.0 - - 10 - - - -
18/06:00pm 26.3 W 16 21 1011.9 - 0.0 - - 10 - - - -
18/05:30pm 26.7 W 17 21 1011.7 - 0.0 - - 10 - - - -
18/05:00pm 27.0 W 18 21 1011.3 - 0.0 - - 10 - - - -
18/04:30pm 27.5 W 18 22 1011.3 - 0.0 - - 10 - - - -
18/04:00pm 28.3 W 18 23 1011.3 - 0.0 - - 10 - - - -
18/03:30pm 28.4 WNW 16 20 1011.1 - 0.0 - - 10 - - - -
18/03:00pm 29.6 W 16 20 1011.0 - 0.0 - - 10 - - - -
18/02:30pm 30.1 WNW 15 20 1011.0 - 0.0 - - 10 - - - -
18/02:00pm 30.3 WNW 14 18 1011.0 - 0.0 - - 10 - - - -
18/01:30pm 30.2 WNW 14 18 1011.3 - 0.0 - - 10 - - - -
18/01:00pm 30.0 WNW 14 19 1011.3 - 0.0 - - 10 - - - -
18/12:30pm 29.9 WNW 14 18 1011.6 - 0.0 - - 10 - - - -
18/12:00pm 29.8 WNW 12 15 1012.2 - 0.0 - - 10 - - - -
18/11:30am 30.5 WNW 11 14 1012.4 - 0.0 - - 10 - - - -
18/11:00am 29.3 W 12 16 1012.6 - 0.0 - - 10 - - - -
18/10:30am 29.4 W 14 17 1012.8 - 0.0 - - 10 - - - -
18/10:00am 28.6 W 13 16 1013.0 - 0.0 - - 10 - - - -
18/09:30am 27.7 W 11 15 1013.5 - 0.0 - - 10 - - - -
18/09:00am 27.3 W 10 13 1013.7 - 0.0 - - 10 - - - -
18/08:30am 26.4 W 11 13 1013.6 - 0.0 - - 10 - - - -
18/08:00am 25.5 WSW 12 15 1013.7 - 0.0 - - 10 - - - -
18/07:30am 24.8 WSW 13 15 1013.5 - 0.0 - - 10 - - - -
18/07:00am 24.2 WSW 12 15 1013.3 - 0.0 - - 10 - - - -
18/06:30am 23.5 WSW 10 13 1013.1 - 0.0 - - 10 - - - -
18/06:00am 22.8 SW 9 11 1012.8 - 0.0 - - 10 - - - -
18/05:30am 22.8 WSW 10 13 1012.3 - 0.0 - - 10 - - - -

Other Formats:

Comma delimited format used in spreadsheet applications
http://www.bom.gov.au/fwo/IDW60701/IDW60701.95307.axf

JavaScript Object Notation format (JSON) in row-major order
http://www.bom.gov.au/fwo/IDW60701/IDW60701.95307.json